Weather reports worldwide

Advertisment
Tarvisio, Italy (16040): temperature & dewpoint: 15.05.2019 16:00:00 - 21.05.2019 16:00:00 (CEST)Tarvisio, Italy (16040): wind speed: 15.05.2019 16:00:00 - 21.05.2019 16:00:00 (CEST)Tarvisio, Italy (16040): wind direction: 15.05.2019 16:00:00 - 21.05.2019 16:00:00 (CEST)Tarvisio, Italy (16040): visibility: 15.05.2019 16:00:00 - 21.05.2019 16:00:00 (CEST)
Date & Time tt [°C] td [°C] ff [km/h] ff [kn] dd vv [km]
21.05.2019 16:00:00 - - - - - -
21.05.2019 15:00:00 19,0 14,0 13 7 W 10
21.05.2019 14:00:00 13,2 9,1 11 6 W 15
21.05.2019 13:00:00 12,0 9,0 11 6 W 10
21.05.2019 12:00:00 12,0 9,0 11 6 WNW 10
21.05.2019 11:00:00 11,4 8,6 9 5 WNW 12
21.05.2019 10:00:00 11,0 9,0 9 5 WNW 10
21.05.2019 09:00:00 10,0 9,0 2 1 W 10
21.05.2019 08:00:00 8,8 7,9 0 0 N 10
21.05.2019 07:00:00 - - - - - -
21.05.2019 06:00:00 - - - - - -
21.05.2019 05:00:00 - - - - - -
21.05.2019 04:00:00 - - - - - -
21.05.2019 03:00:00 - - - - - -
21.05.2019 02:00:00 - - - - - -
21.05.2019 01:00:00 - - - - - -
21.05.2019 00:00:00 - - - - - -
20.05.2019 23:00:00 - - - - - -
20.05.2019 22:00:00 - - - - - -
20.05.2019 21:00:00 - - - - - -
20.05.2019 20:00:00 11,4 8,1 5 3 WNW 15
20.05.2019 19:00:00 12,0 8,0 8 4 S 10
20.05.2019 18:00:00 12,0 8,0 5 3 S 10
20.05.2019 17:00:00 12,2 7,5 8 4 SW 15
20.05.2019 16:00:00 12,0 8,0 9 5 ESE 10
20.05.2019 15:00:00 14,0 8,0 8 4 ENE 10
20.05.2019 14:00:00 12,6 7,3 9 5 NNW 15
20.05.2019 13:00:00 12,0 8,0 5 3 NW 10
20.05.2019 12:00:00 12,0 9,0 8 4 WNW 10
20.05.2019 11:00:00 11,0 7,7 9 5 NW 15
20.05.2019 10:00:00 11,0 8,0 11 6 WNW 10
20.05.2019 09:00:00 10,0 8,0 11 6 W 10
20.05.2019 08:00:00 9,0 7,4 13 7 WNW 15
20.05.2019 07:00:00 - - - - - -
20.05.2019 06:00:00 - - - - - -
20.05.2019 05:00:00 - - - - - -
20.05.2019 04:00:00 - - - - - -
20.05.2019 03:00:00 - - - - - -
20.05.2019 02:00:00 - - - - - -
20.05.2019 01:00:00 - - - - - -
20.05.2019 00:00:00 - - - - - -
19.05.2019 23:00:00 - - - - - -
19.05.2019 22:00:00 - - - - - -
19.05.2019 21:00:00 - - - - - -
19.05.2019 20:00:00 10,8 9,1 8 4 NW 15
19.05.2019 19:00:00 11,0 10,0 8 4 NW 10
19.05.2019 18:00:00 11,0 10,0 9 5 WNW 10
19.05.2019 17:00:00 11,4 10,1 8 4 NW 10
19.05.2019 16:00:00 12,0 11,0 8 4 WNW 10
19.05.2019 15:00:00 13,0 10,0 8 4 SSE 10
19.05.2019 14:00:00 15,2 8,0 4 2 E 15
19.05.2019 13:00:00 14,0 8,0 5 3 E 10
19.05.2019 12:00:00 14,0 9,0 8 4 E 10
19.05.2019 11:00:00 13,6 9,1 9 5 E 15
19.05.2019 10:00:00 13,0 9,0 8 4 ESE 10
19.05.2019 09:00:00 6,0 4,0 4 2 SSE 10
19.05.2019 08:00:00 9,4 7,8 0 0 N 15
19.05.2019 07:00:00 - - - - - -
19.05.2019 06:00:00 - - - - - -
19.05.2019 05:00:00 - - - - - -
19.05.2019 04:00:00 - - - - - -
19.05.2019 03:00:00 - - - - - -
19.05.2019 02:00:00 - - - - - -
19.05.2019 01:00:00 - - - - - -
19.05.2019 00:00:00 - - - - - -
18.05.2019 23:00:00 - - - - - -
18.05.2019 22:00:00 - - - - - -
18.05.2019 21:00:00 - - - - - -
18.05.2019 20:00:00 11,0 10,2 0 0 N 8
18.05.2019 19:00:00 12,0 11,0 2 1 E 8
18.05.2019 18:00:00 12,0 9,0 4 2 ESE 10
18.05.2019 17:00:00 13,0 8,7 0 0 N 10
18.05.2019 16:00:00 13,0 9,0 2 1 E 10
18.05.2019 15:00:00 13,0 9,0 8 4 E 10
18.05.2019 14:00:00 12,8 8,3 9 5 E 10
18.05.2019 13:00:00 11,0 8,0 8 4 E 10
18.05.2019 12:00:00 11,0 9,0 5 3 ESE 10
18.05.2019 11:00:00 11,2 8,3 4 2 E 8
18.05.2019 10:00:00 10,0 8,0 4 2 SSE 10
18.05.2019 09:00:00 10,0 7,0 4 2 SSE 10
18.05.2019 08:00:00 9,0 7,0 2 1 ENE 10
18.05.2019 07:00:00 - - - - - -
18.05.2019 06:00:00 - - - - - -
18.05.2019 05:00:00 - - - - - -
18.05.2019 04:00:00 - - - - - -
18.05.2019 03:00:00 - - - - - -
18.05.2019 02:00:00 - - - - - -
18.05.2019 01:00:00 - - - - - -
18.05.2019 00:00:00 - - - - - -
17.05.2019 23:00:00 - - - - - -
17.05.2019 22:00:00 - - - - - -
17.05.2019 21:00:00 - - - - - -
17.05.2019 20:00:00 12,0 6,7 4 2 NNW 10
17.05.2019 19:00:00 14,0 7,0 5 3 WNW 10
17.05.2019 18:00:00 14,0 6,0 5 3 SSE 10
17.05.2019 17:00:00 14,0 5,6 8 4 SE 10
17.05.2019 16:00:00 15,0 8,0 4 2 W 10
17.05.2019 15:00:00 15,0 7,0 4 2 E 10
17.05.2019 14:00:00 14,2 6,6 4 2 E 10
17.05.2019 13:00:00 14,0 7,0 5 3 E 10
17.05.2019 12:00:00 13,0 6,0 8 4 E 10
17.05.2019 11:00:00 12,6 6,9 8 4 E 10
17.05.2019 10:00:00 11,0 8,0 5 3 ESE 10
17.05.2019 09:00:00 - - - - - -
17.05.2019 08:00:00 7,2 5,5 0 0 N 10
17.05.2019 07:00:00 - - - - - -
17.05.2019 06:00:00 - - - - - -
17.05.2019 05:00:00 - - - - - -
17.05.2019 04:00:00 - - - - - -
17.05.2019 03:00:00 - - - - - -
17.05.2019 02:00:00 - - - - - -
17.05.2019 01:00:00 - - - - - -
17.05.2019 00:00:00 - - - - - -
16.05.2019 23:00:00 - - - - - -
16.05.2019 22:00:00 - - - - - -
16.05.2019 21:00:00 - - - - - -
16.05.2019 20:00:00 10,0 5,2 4 2 E 15
16.05.2019 19:00:00 11,0 6,0 9 5 E 10
16.05.2019 18:00:00 12,0 5,0 5 3 E 10
16.05.2019 17:00:00 12,8 9,8 4 2 ESE 15
16.05.2019 16:00:00 13,0 5,0 5 3 E 10
16.05.2019 15:00:00 13,0 5,0 4 2 ESE 10
16.05.2019 14:00:00 12,4 5,8 8 4 SE 15
16.05.2019 13:00:00 13,0 6,0 9 5 E 10
16.05.2019 12:00:00 12,0 4,0 11 6 E 10
16.05.2019 11:00:00 9,8 5,4 5 3 E 15
16.05.2019 10:00:00 10,0 4,0 9 5 ESE 10
16.05.2019 09:00:00 7,0 5,0 4 2 W 10
16.05.2019 08:00:00 5,6 4,6 2 1 SSE 12
16.05.2019 07:00:00 - - - - - -
16.05.2019 06:00:00 - - - - - -
16.05.2019 05:00:00 - - - - - -
16.05.2019 04:00:00 - - - - - -
16.05.2019 03:00:00 - - - - - -
16.05.2019 02:00:00 - - - - - -
16.05.2019 01:00:00 - - - - - -
16.05.2019 00:00:00 - - - - - -
15.05.2019 23:00:00 - - - - - -
15.05.2019 22:00:00 - - - - - -
15.05.2019 21:00:00 - - - - - -
15.05.2019 20:00:00 6,2 4,7 0 0 N 15
15.05.2019 19:00:00 7,0 5,0 4 2 NE 10
15.05.2019 18:00:00 7,0 5,0 5 3 NE 10
15.05.2019 17:00:00 6,8 5,0 4 2 ENE 10
15.05.2019 16:00:00 6,0 4,0 4 2 E 8

tt = temperature
td = dewpoint
ff = wind speed
dd = wind direction
vv = visibility

Next stations